Time;durP1;ratioP1;P1;durP2;ratioP2;P2;SDS_P1;SDS_P2;PMS_P1;PMS_P2;Temp;Humidity;BMP_temperature;BMP_pressure;BME280_temperature;BME280_humidity;BME280_pressure;Samples;Min_cycle;Max_cycle;Signal;HPM_P1;HPM_P2
2023/01/20 00:00:12;;;;;;;38.47;18.73;;;0.00;99.90;;;;;;5049452;28;20282;-69
2023/01/20 00:02:39;;;;;;;35.03;18.53;;;-0.20;99.90;;;;;;5062777;28;20235;-68
2023/01/20 00:05:08;;;;;;;33.53;18.43;;;-0.30;99.90;;;;;;5050146;28;20293;-68
2023/01/20 00:07:35;;;;;;;34.80;20.60;;;-0.30;99.90;;;;;;5051977;28;20285;-69
2023/01/20 00:10:02;;;;;;;36.77;19.63;;;-0.30;99.90;;;;;;5049699;28;20249;-69
2023/01/20 00:12:31;;;;;;;35.73;16.60;;;-0.30;99.90;;;;;;5055485;28;20676;-68
2023/01/20 00:14:58;;;;;;;35.03;18.50;;;-0.30;99.90;;;;;;5050152;28;20218;-69
2023/01/20 00:17:25;;;;;;;35.30;18.37;;;-0.40;99.90;;;;;;5060320;28;20287;-69
2023/01/20 00:19:52;;;;;;;35.23;18.13;;;-0.20;99.90;;;;;;5050328;28;20233;-69
2023/01/20 00:22:21;;;;;;;33.73;17.80;;;-0.30;99.90;;;;;;5062255;28;20237;-69
2023/01/20 00:24:48;;;;;;;31.53;16.37;;;-0.40;99.90;;;;;;5050489;28;20660;-69
2023/01/20 00:27:15;;;;;;;31.57;16.73;;;-0.60;99.90;;;;;;5051069;28;20234;-69
2023/01/20 00:29:43;;;;;;;31.03;16.30;;;-0.40;99.90;;;;;;5048849;28;20495;-69
2023/01/20 00:32:10;;;;;;;32.53;16.07;;;-0.60;99.90;;;;;;5058874;28;20538;-69
2023/01/20 00:34:37;;;;;;;32.87;17.57;;;-0.60;99.90;;;;;;5051079;28;20309;-69
2023/01/20 00:37:04;;;;;;;32.27;17.97;;;-0.60;99.90;;;;;;5053029;28;20282;-68
2023/01/20 00:39:32;;;;;;;35.20;19.23;;;-0.70;99.90;;;;;;5049761;28;20623;-69
2023/01/20 00:41:59;;;;;;;31.03;16.93;;;-0.70;99.90;;;;;;5051252;28;20214;-69
2023/01/20 00:44:26;;;;;;;30.23;16.90;;;-0.80;99.90;;;;;;5048209;28;20238;-69
2023/01/20 00:46:52;;;;;;;32.43;17.33;;;-0.80;99.90;;;;;;5051202;28;21547;-69
2023/01/20 00:49:19;;;;;;;35.33;18.93;;;-0.80;99.90;;;;;;5049971;28;20613;-69
2023/01/20 00:51:46;;;;;;;33.00;17.40;;;-0.70;99.90;;;;;;5058680;28;20231;-69
2023/01/20 00:54:13;;;;;;;30.80;15.57;;;-0.60;99.90;;;;;;5049630;28;20297;-69
2023/01/20 00:56:41;;;;;;;33.33;18.13;;;-0.60;99.90;;;;;;5051700;28;20265;-68
2023/01/20 00:59:09;;;;;;;36.53;18.20;;;-0.40;99.90;;;;;;5046512;28;20645;-69
2023/01/20 01:01:36;;;;;;;34.87;19.37;;;-0.30;99.90;;;;;;5051866;28;20286;-69
2023/01/20 01:04:03;;;;;;;36.03;19.40;;;-0.20;99.90;;;;;;5053285;28;20233;-69
2023/01/20 01:06:30;;;;;;;31.57;17.17;;;-0.20;99.90;;;;;;5054930;28;20292;-69
2023/01/20 01:08:56;;;;;;;33.13;18.80;;;-0.10;99.90;;;;;;5048823;28;20198;-69
2023/01/20 01:11:23;;;;;;;33.40;18.43;;;0.00;99.90;;;;;;5051800;28;20556;-69
2023/01/20 01:13:52;;;;;;;32.70;16.30;;;0.10;99.90;;;;;;5052451;28;20749;-69
2023/01/20 01:16:19;;;;;;;35.20;18.47;;;0.10;99.90;;;;;;5053990;28;20302;-69
2023/01/20 01:18:46;;;;;;;35.27;18.50;;;0.00;99.90;;;;;;5048831;28;20234;-69
2023/01/20 01:21:14;;;;;;;30.97;17.13;;;-0.10;99.90;;;;;;5054173;28;20234;-69
2023/01/20 01:23:41;;;;;;;33.80;15.97;;;-0.10;99.90;;;;;;5056953;28;20202;-69
2023/01/20 01:26:09;;;;;;;36.00;16.57;;;-0.10;99.90;;;;;;5050679;28;20294;-69
2023/01/20 01:28:36;;;;;;;32.17;17.10;;;-0.30;99.90;;;;;;5059869;28;20237;-69
2023/01/20 01:31:06;;;;;;;32.80;17.73;;;-0.30;99.90;;;;;;5048458;28;20235;-69
2023/01/20 01:33:33;;;;;;;38.53;17.60;;;-0.40;99.90;;;;;;5055467;28;20255;-69
2023/01/20 01:36:02;;;;;;;32.47;18.40;;;-0.50;99.90;;;;;;5051263;28;20230;-69
2023/01/20 01:38:29;;;;;;;30.47;17.37;;;-0.40;99.90;;;;;;5063911;28;20214;-69
2023/01/20 01:40:56;;;;;;;34.60;15.87;;;-0.40;99.90;;;;;;5048525;28;20234;-69
2023/01/20 01:43:39;;;;;;;30.93;16.13;;;-0.40;99.90;;;;;;5023590;28;20205;-69
2023/01/20 01:46:08;;;;;;;34.07;17.40;;;-0.30;99.90;;;;;;5049061;28;20238;-69
2023/01/20 01:48:40;;;;;;;28.93;16.43;;;-0.20;99.90;;;;;;5045087;28;20286;-69
2023/01/20 01:51:13;;;;;;;34.87;17.80;;;-0.20;99.90;;;;;;5058804;28;20234;-69
2023/01/20 01:53:43;;;;;;;27.57;15.53;;;-0.30;99.90;;;;;;5047700;28;20250;-69
2023/01/20 01:56:11;;;;;;;29.70;17.23;;;-0.40;99.90;;;;;;5059751;28;20257;-69
2023/01/20 01:58:41;;;;;;;27.77;16.47;;;-0.40;99.90;;;;;;5047173;28;20285;-69
2023/01/20 02:01:09;;;;;;;30.23;17.70;;;-0.50;99.90;;;;;;5051190;28;20231;-69
2023/01/20 02:03:44;;;;;;;31.17;17.47;;;-0.60;99.90;;;;;;5047316;28;20237;-69
2023/01/20 02:06:12;;;;;;;28.63;14.03;;;-0.60;99.90;;;;;;5056760;28;20244;-68
2023/01/20 02:08:39;;;;;;;32.73;17.23;;;-0.70;99.90;;;;;;5047615;28;20233;-68
2023/01/20 02:11:06;;;;;;;33.07;18.33;;;-0.70;99.90;;;;;;5059929;28;20274;-69
2023/01/20 02:13:34;;;;;;;33.40;18.07;;;-0.50;99.90;;;;;;5049024;28;20305;-69
2023/01/20 02:16:11;;;;;;;30.30;16.87;;;-0.50;99.90;;;;;;5064710;28;20207;-69
2023/01/20 02:18:48;;;;;;;35.93;16.83;;;-0.60;99.90;;;;;;5051412;28;20199;-69
2023/01/20 02:22:03;;;;;;;36.97;17.90;;;-0.60;99.90;;;;;;5052012;28;20269;-69
2023/01/20 02:25:05;;;;;;;32.87;18.37;;;-0.60;99.90;;;;;;5000208;28;20295;-69
2023/01/20 02:27:52;;;;;;;32.57;18.43;;;-0.50;99.90;;;;;;5048926;28;20296;-69
2023/01/20 02:30:43;;;;;;;32.17;18.00;;;-0.40;99.90;;;;;;5055425;28;20634;-68
2023/01/20 02:33:15;;;;;;;29.00;16.23;;;-0.60;99.90;;;;;;5046678;28;21007;-68
2023/01/20 02:35:46;;;;;;;33.20;17.47;;;-0.70;99.90;;;;;;5063079;28;20240;-68
2023/01/20 02:38:22;;;;;;;28.87;16.67;;;-0.80;99.90;;;;;;5057062;28;20296;-68
2023/01/20 02:40:59;;;;;;;32.47;16.80;;;-0.80;99.90;;;;;;5042939;28;20609;-68
2023/01/20 02:43:34;;;;;;;34.20;16.97;;;-0.90;99.90;;;;;;5052284;28;20218;-68
2023/01/20 02:46:08;;;;;;;31.67;18.20;;;-0.70;99.90;;;;;;5061834;28;20237;-68
2023/01/20 02:48:43;;;;;;;33.30;17.63;;;-0.80;99.90;;;;;;5054720;28;20234;-68
2023/01/20 02:51:14;;;;;;;31.63;17.13;;;-0.90;99.90;;;;;;5060415;28;20213;-68
2023/01/20 02:53:47;;;;;;;43.33;18.40;;;-0.90;99.90;;;;;;5054662;28;20649;-68
2023/01/20 02:56:16;;;;;;;32.30;16.63;;;-0.90;99.90;;;;;;5047824;28;20282;-68
2023/01/20 02:58:48;;;;;;;32.10;17.43;;;-0.80;99.90;;;;;;5051342;28;20274;-68
2023/01/20 03:01:20;;;;;;;30.87;16.27;;;-0.70;99.90;;;;;;5051607;28;20290;-68
2023/01/20 03:03:52;;;;;;;31.70;17.43;;;-1.00;99.90;;;;;;5052937;28;20324;-68
2023/01/20 03:06:22;;;;;;;31.57;17.37;;;-1.00;99.90;;;;;;5049536;28;20559;-68
2023/01/20 03:08:52;;;;;;;33.30;17.00;;;-1.10;99.90;;;;;;5058182;28;20233;-68
2023/01/20 03:11:20;;;;;;;28.80;16.43;;;-1.10;99.90;;;;;;5053276;28;20290;-68
2023/01/20 03:13:51;;;;;;;33.87;17.77;;;-1.20;99.90;;;;;;5049809;28;20306;-68
2023/01/20 03:16:20;;;;;;;35.20;16.53;;;-1.00;99.90;;;;;;5060588;28;20233;-69
2023/01/20 03:18:49;;;;;;;31.40;17.77;;;-1.10;99.90;;;;;;5049200;28;20708;-68
2023/01/20 03:21:16;;;;;;;32.27;17.27;;;-1.20;99.90;;;;;;5059231;28;20297;-68
2023/01/20 03:23:47;;;;;;;30.27;16.67;;;-1.40;99.90;;;;;;5052897;28;20282;-68
2023/01/20 03:26:17;;;;;;;31.23;16.00;;;-1.30;99.90;;;;;;5048213;28;20317;-68
2023/01/20 03:28:47;;;;;;;31.30;16.43;;;-1.40;99.90;;;;;;5050524;28;20245;-68
2023/01/20 03:31:17;;;;;;;32.70;17.40;;;-1.20;99.90;;;;;;5055864;28;20238;-68
2023/01/20 03:33:46;;;;;;;31.77;16.50;;;-1.20;99.90;;;;;;5052869;28;20254;-68
2023/01/20 03:36:16;;;;;;;32.63;16.83;;;-1.20;99.90;;;;;;5051971;28;20281;-68
2023/01/20 03:38:43;;;;;;;32.77;16.40;;;-1.30;99.90;;;;;;5049892;28;20302;-68
2023/01/20 03:41:17;;;;;;;32.50;16.93;;;-1.50;99.90;;;;;;5060288;28;20290;-68
2023/01/20 03:43:55;;;;;;;31.87;17.10;;;-1.50;99.90;;;;;;5052287;28;20205;-68
2023/01/20 03:46:30;;;;;;;32.53;16.33;;;-1.40;99.90;;;;;;5050418;28;20309;-68
2023/01/20 03:49:06;;;;;;;32.07;17.03;;;-1.30;99.90;;;;;;5055289;28;20610;-68
2023/01/20 03:51:42;;;;;;;27.77;15.53;;;-1.40;99.90;;;;;;5052169;28;20238;-68
2023/01/20 03:54:15;;;;;;;29.77;15.77;;;-1.40;99.90;;;;;;5051436;28;20318;-67
2023/01/20 03:56:45;;;;;;;32.23;16.50;;;-1.40;99.90;;;;;;5061878;28;20289;-68
2023/01/20 03:59:14;;;;;;;32.17;17.17;;;-1.20;99.90;;;;;;5049112;28;20289;-68
2023/01/20 04:01:44;;;;;;;35.67;18.43;;;-1.20;99.90;;;;;;5054735;28;20656;-68
2023/01/20 04:04:14;;;;;;;32.83;16.77;;;-1.20;99.90;;;;;;5053984;28;20272;-68
2023/01/20 04:06:45;;;;;;;33.93;16.77;;;-1.40;99.90;;;;;;5050004;28;20237;-68
2023/01/20 04:09:16;;;;;;;32.23;16.97;;;-1.20;99.90;;;;;;5044532;28;20203;-68
2023/01/20 04:11:43;;;;;;;31.63;16.87;;;-1.00;99.90;;;;;;5059693;28;20278;-68
2023/01/20 04:14:11;;;;;;;36.13;17.73;;;-1.10;99.90;;;;;;5048229;28;20310;-68
2023/01/20 04:16:38;;;;;;;31.80;16.77;;;-1.20;99.90;;;;;;5055112;28;20238;-68
2023/01/20 04:19:05;;;;;;;30.20;16.93;;;-1.30;99.90;;;;;;5054289;28;20294;-68
2023/01/20 04:21:35;;;;;;;32.47;16.40;;;-1.30;99.90;;;;;;5051168;28;20199;-68
2023/01/20 04:24:07;;;;;;;34.60;17.03;;;-1.40;99.90;;;;;;5036518;28;20424;-69
2023/01/20 04:26:34;;;;;;;31.93;16.97;;;-1.40;99.90;;;;;;5052372;28;20298;-68
2023/01/20 04:29:07;;;;;;;31.87;15.63;;;-1.40;99.90;;;;;;5050062;28;20231;-68
2023/01/20 04:31:34;;;;;;;29.97;16.63;;;-1.40;99.90;;;;;;5051771;28;20568;-68
2023/01/20 04:34:01;;;;;;;35.00;17.60;;;-1.50;99.90;;;;;;5049437;28;20318;-68
2023/01/20 04:36:28;;;;;;;30.93;17.17;;;-1.50;99.90;;;;;;5068187;28;20198;-68
2023/01/20 04:38:55;;;;;;;32.97;17.17;;;-1.50;99.90;;;;;;5048975;28;20310;-69
2023/01/20 04:41:24;;;;;;;32.13;16.13;;;-1.60;99.90;;;;;;5051593;28;20289;-68
2023/01/20 04:43:51;;;;;;;30.43;16.10;;;-1.60;99.90;;;;;;5051919;28;20286;-68
2023/01/20 04:46:17;;;;;;;32.07;16.13;;;-1.60;99.90;;;;;;5050339;28;20237;-68
2023/01/20 04:48:46;;;;;;;31.73;18.50;;;-1.60;99.90;;;;;;5050116;28;20287;-68
2023/01/20 04:51:13;;;;;;;29.93;16.30;;;-1.60;99.90;;;;;;5048961;28;20285;-68
2023/01/20 04:53:40;;;;;;;30.37;17.13;;;-1.60;99.90;;;;;;5065115;28;20213;-68
2023/01/20 04:56:11;;;;;;;32.03;16.17;;;-1.50;99.90;;;;;;5052615;28;20386;-68
2023/01/20 04:58:40;;;;;;;30.50;17.23;;;-1.40;99.90;;;;;;5055579;28;20226;-68
2023/01/20 05:01:08;;;;;;;34.17;17.00;;;-1.30;99.90;;;;;;5057955;28;20634;-68
2023/01/20 05:03:35;;;;;;;34.57;17.67;;;-1.20;99.90;;;;;;5059459;28;20207;-68
2023/01/20 05:06:02;;;;;;;31.03;16.37;;;-1.20;99.90;;;;;;5060297;28;20289;-68
2023/01/20 05:08:29;;;;;;;31.10;16.47;;;-1.30;99.90;;;;;;5049641;28;20649;-68
2023/01/20 05:10:55;;;;;;;34.83;17.87;;;-1.30;99.90;;;;;;5049351;28;20275;-68
2023/01/20 05:13:22;;;;;;;33.67;16.63;;;-1.30;99.90;;;;;;5051074;28;20629;-68
2023/01/20 05:15:51;;;;;;;33.87;17.23;;;-1.30;99.90;;;;;;5057004;28;20231;-68
2023/01/20 05:18:18;;;;;;;34.47;17.23;;;-1.50;99.90;;;;;;5051242;28;20239;-68
2023/01/20 05:20:45;;;;;;;31.87;16.43;;;-1.60;99.90;;;;;;5058953;28;20253;-68
2023/01/20 05:23:12;;;;;;;31.70;17.37;;;-1.60;99.90;;;;;;5051182;28;20235;-68
2023/01/20 05:25:39;;;;;;;30.47;16.80;;;-1.70;99.90;;;;;;5048326;28;20286;-68
2023/01/20 05:28:06;;;;;;;31.03;16.63;;;-1.50;99.90;;;;;;5051386;28;20206;-68
2023/01/20 05:30:33;;;;;;;35.13;17.53;;;-1.50;99.90;;;;;;5050157;28;20704;-68
2023/01/20 05:33:01;;;;;;;34.90;17.00;;;-1.40;99.90;;;;;;5060281;28;20249;-68
2023/01/20 05:35:28;;;;;;;31.97;17.30;;;-1.40;99.90;;;;;;5066752;28;20308;-68
2023/01/20 05:37:55;;;;;;;33.60;17.77;;;-1.20;99.90;;;;;;5055375;28;20231;-68
2023/01/20 05:40:22;;;;;;;32.97;17.97;;;-1.20;99.90;;;;;;5049069;28;20293;-68
2023/01/20 05:42:49;;;;;;;36.90;16.97;;;-1.10;99.90;;;;;;5048704;28;20277;-68
2023/01/20 05:45:16;;;;;;;32.43;17.53;;;-1.00;99.90;;;;;;5050953;28;20294;-68
2023/01/20 05:47:43;;;;;;;34.77;17.73;;;-0.90;99.90;;;;;;5052580;28;20285;-68
2023/01/20 05:50:12;;;;;;;33.33;17.07;;;-1.00;99.90;;;;;;5067867;28;20668;-68
2023/01/20 05:52:39;;;;;;;33.33;17.63;;;-1.10;99.90;;;;;;5063389;28;20617;-68
2023/01/20 05:55:06;;;;;;;30.57;16.70;;;-1.20;99.90;;;;;;5049661;28;20235;-68
2023/01/20 05:57:33;;;;;;;32.90;16.73;;;-1.40;99.90;;;;;;5047767;28;21249;-68
2023/01/20 06:00:00;;;;;;;29.80;16.83;;;-1.40;99.90;;;;;;5049863;28;20248;-68
2023/01/20 06:02:30;;;;;;;31.93;17.00;;;-1.20;99.90;;;;;;5058761;28;20289;-67
2023/01/20 06:05:00;;;;;;;32.00;17.63;;;-1.30;99.90;;;;;;5059701;28;20273;-67
2023/01/20 06:07:28;;;;;;;33.90;17.07;;;-1.30;99.90;;;;;;5051631;28;20294;-67
2023/01/20 06:09:55;;;;;;;31.17;17.57;;;-1.30;99.90;;;;;;5073982;28;20230;-67
2023/01/20 06:12:23;;;;;;;37.73;17.33;;;-1.40;99.90;;;;;;5065805;28;20203;-67
2023/01/20 06:14:50;;;;;;;33.13;17.67;;;-1.40;99.90;;;;;;5067112;28;20211;-67
2023/01/20 06:17:17;;;;;;;30.77;16.60;;;-1.40;99.90;;;;;;5066263;28;20207;-67
2023/01/20 06:19:43;;;;;;;33.77;16.67;;;-1.60;99.90;;;;;;5066897;28;20194;-67
2023/01/20 06:22:14;;;;;;;32.23;16.43;;;-1.50;99.90;;;;;;5060478;28;20210;-67
2023/01/20 06:24:42;;;;;;;32.17;16.77;;;-1.70;99.90;;;;;;5065531;28;20233;-67
2023/01/20 06:27:09;;;;;;;28.27;15.97;;;-1.70;99.90;;;;;;5067309;28;20209;-67
2023/01/20 06:29:36;;;;;;;32.40;16.50;;;-1.80;99.90;;;;;;5062432;28;20214;-67
2023/01/20 06:32:03;;;;;;;28.90;16.00;;;-1.70;99.90;;;;;;5055118;28;20205;-67
2023/01/20 06:34:30;;;;;;;29.63;15.80;;;-1.80;99.90;;;;;;5066284;28;20222;-67
2023/01/20 06:36:57;;;;;;;28.37;15.73;;;-1.90;99.90;;;;;;5066110;28;20203;-67
2023/01/20 06:39:24;;;;;;;28.23;15.37;;;-1.60;99.90;;;;;;5070836;28;20582;-67
2023/01/20 06:41:52;;;;;;;30.80;16.33;;;-1.50;99.90;;;;;;5059007;28;20198;-67
2023/01/20 06:44:18;;;;;;;31.30;16.60;;;-1.40;99.90;;;;;;5058559;28;20673;-67
2023/01/20 06:46:46;;;;;;;28.00;14.87;;;-1.50;99.90;;;;;;5057343;28;20649;-67
2023/01/20 06:49:13;;;;;;;30.03;16.77;;;-1.60;99.90;;;;;;5071706;28;20207;-67
2023/01/20 06:51:40;;;;;;;28.93;15.73;;;-1.60;99.90;;;;;;5057290;28;20210;-67
2023/01/20 06:54:07;;;;;;;28.87;16.17;;;-1.50;99.90;;;;;;5059582;28;20207;-67
2023/01/20 06:56:34;;;;;;;28.33;15.67;;;-1.60;99.90;;;;;;5054760;28;20223;-67
2023/01/20 06:59:02;;;;;;;29.43;17.07;;;-1.50;99.90;;;;;;5054310;28;20214;-67
2023/01/20 07:01:30;;;;;;;30.57;16.93;;;-1.40;99.90;;;;;;5054760;28;20218;-67
2023/01/20 07:03:57;;;;;;;26.50;15.23;;;-1.30;99.90;;;;;;5052162;28;20206;-67
2023/01/20 07:06:28;;;;;;;31.50;17.27;;;-1.50;99.90;;;;;;5052735;28;20195;-67
2023/01/20 07:08:55;;;;;;;28.33;15.77;;;-1.60;99.90;;;;;;5047963;28;20203;-67
2023/01/20 07:11:23;;;;;;;29.67;16.40;;;-1.70;99.90;;;;;;5050329;28;20634;-67
2023/01/20 07:13:50;;;;;;;28.90;16.80;;;-1.70;99.90;;;;;;5052461;28;20207;-67
2023/01/20 07:16:18;;;;;;;30.83;17.67;;;-1.60;99.90;;;;;;5052773;28;20684;-67
2023/01/20 07:18:48;;;;;;;29.87;15.73;;;-1.70;99.90;;;;;;5053796;28;20203;-67
2023/01/20 07:21:16;;;;;;;30.30;15.67;;;-1.70;99.90;;;;;;5043590;28;20207;-67
2023/01/20 07:23:42;;;;;;;34.97;16.97;;;-1.80;99.90;;;;;;5056102;28;20206;-65
2023/01/20 07:26:12;;;;;;;30.53;16.50;;;-1.90;99.90;;;;;;5058782;28;20203;-66
2023/01/20 07:28:40;;;;;;;32.30;17.53;;;-2.10;99.90;;;;;;5048263;28;20203;-66
2023/01/20 07:31:09;;;;;;;42.40;23.03;;;-2.10;99.90;;;;;;5048643;28;20631;-66
2023/01/20 07:33:38;;;;;;;40.57;21.60;;;-2.20;99.90;;;;;;5060459;28;20226;-66
2023/01/20 07:36:06;;;;;;;37.93;21.80;;;-2.10;99.90;;;;;;5052476;28;20587;-66
2023/01/20 07:38:33;;;;;;;38.63;21.07;;;-2.00;99.90;;;;;;5054141;28;20683;-66
2023/01/20 07:41:01;;;;;;;33.13;18.73;;;-2.00;99.90;;;;;;5050309;28;20215;-66
2023/01/20 07:43:28;;;;;;;32.53;18.03;;;-2.10;99.90;;;;;;5054893;28;20567;-66
2023/01/20 07:45:55;;;;;;;32.53;17.37;;;-2.00;99.90;;;;;;5052674;28;20546;-67
2023/01/20 07:48:22;;;;;;;33.73;17.97;;;-2.10;99.90;;;;;;5051471;28;20238;-67
2023/01/20 07:51:00;;;;;;;33.90;17.73;;;-2.10;99.90;;;;;;5056253;28;20214;-67
2023/01/20 07:53:27;;;;;;;29.17;17.10;;;-2.10;99.90;;;;;;5048169;28;20211;-67
2023/01/20 07:55:54;;;;;;;33.27;18.93;;;-2.10;99.90;;;;;;5056213;28;20309;-67
2023/01/20 07:58:20;;;;;;;38.50;19.80;;;-2.10;99.90;;;;;;5048064;28;20203;-67
2023/01/20 08:00:47;;;;;;;31.57;18.47;;;-2.00;99.90;;;;;;5048276;28;20206;-67
2023/01/20 08:03:14;;;;;;;34.67;19.83;;;-2.00;99.90;;;;;;5049210;28;20665;-67
2023/01/20 08:05:42;;;;;;;33.30;18.97;;;-2.10;99.90;;;;;;5048265;28;20224;-67
2023/01/20 08:08:10;;;;;;;33.27;19.37;;;-2.10;99.90;;;;;;5041781;28;20207;-67
2023/01/20 08:10:36;;;;;;;34.93;19.77;;;-2.10;99.90;;;;;;5050294;28;20198;-67
2023/01/20 08:13:03;;;;;;;36.90;20.83;;;-2.10;99.90;;;;;;5048720;28;20211;-67
2023/01/20 08:15:30;;;;;;;38.33;22.30;;;-2.10;99.90;;;;;;5047844;28;20228;-67
2023/01/20 08:17:58;;;;;;;50.17;30.00;;;-1.80;99.90;;;;;;5046018;28;20199;-67
2023/01/20 08:20:25;;;;;;;68.57;40.27;;;-1.70;99.90;;;;;;5050416;28;20790;-67
2023/01/20 08:22:52;;;;;;;43.83;24.63;;;-1.60;99.90;;;;;;5049518;28;20210;-67
2023/01/20 08:25:20;;;;;;;36.13;22.47;;;-1.50;99.90;;;;;;5046789;28;20203;-67
2023/01/20 08:27:48;;;;;;;35.33;19.83;;;-1.50;99.90;;;;;;5049697;28;20771;-67
2023/01/20 08:30:15;;;;;;;35.03;20.90;;;-1.40;99.90;;;;;;5049032;28;20242;-67
2023/01/20 08:32:42;;;;;;;39.63;20.93;;;-1.10;99.90;;;;;;5045286;28;20210;-67
2023/01/20 08:35:09;;;;;;;33.07;18.60;;;-0.90;99.90;;;;;;5049882;28;20218;-67
2023/01/20 08:37:36;;;;;;;30.70;18.23;;;-0.80;99.90;;;;;;5047617;28;20214;-67
2023/01/20 08:40:06;;;;;;;34.47;20.17;;;-0.40;99.90;;;;;;5043788;28;20623;-67
2023/01/20 08:42:34;;;;;;;30.63;18.17;;;0.30;99.90;;;;;;5048795;28;20714;-67
2023/01/20 08:45:01;;;;;;;28.37;17.37;;;0.30;99.90;;;;;;5051599;28;20495;-67
2023/01/20 08:47:28;;;;;;;33.87;16.97;;;-0.10;99.90;;;;;;5051511;28;20202;-67
2023/01/20 08:49:55;;;;;;;31.37;15.60;;;0.10;99.90;;;;;;5051819;28;20661;-67
2023/01/20 08:52:22;;;;;;;30.93;16.40;;;0.40;99.90;;;;;;5054666;28;20209;-67
2023/01/20 08:54:52;;;;;;;33.23;16.00;;;1.00;99.90;;;;;;5053725;28;20199;-67
2023/01/20 08:57:19;;;;;;;28.67;14.57;;;1.20;99.90;;;;;;5049345;28;20226;-67
2023/01/20 08:59:49;;;;;;;27.10;16.33;;;0.60;99.90;;;;;;5050678;28;20650;-67
2023/01/20 09:02:16;;;;;;;29.43;16.43;;;0.60;99.90;;;;;;5054007;28;20199;-67
2023/01/20 09:04:45;;;;;;;32.87;18.33;;;0.80;99.90;;;;;;5043208;28;20203;-66
2023/01/20 09:07:12;;;;;;;28.37;13.87;;;0.60;99.90;;;;;;5045393;28;20199;-67
2023/01/20 09:09:39;;;;;;;30.07;15.30;;;0.70;99.90;;;;;;5047056;28;20203;-67
2023/01/20 09:12:06;;;;;;;27.40;14.57;;;1.00;99.90;;;;;;5048770;28;20222;-67
2023/01/20 09:14:33;;;;;;;32.20;15.43;;;1.40;99.90;;;;;;5052376;28;20218;-67
2023/01/20 09:17:02;;;;;;;30.13;14.67;;;1.90;99.90;;;;;;5046221;28;20250;-67
2023/01/20 09:19:28;;;;;;;31.83;16.00;;;1.40;99.90;;;;;;5054344;28;20204;-67
2023/01/20 09:21:56;;;;;;;33.30;15.73;;;1.20;99.90;;;;;;5053281;28;20733;-67
2023/01/20 09:24:23;;;;;;;31.60;16.80;;;1.20;99.90;;;;;;5050913;28;20199;-67
2023/01/20 09:26:51;;;;;;;32.27;16.77;;;0.90;99.90;;;;;;5057500;28;20672;-67
2023/01/20 09:29:20;;;;;;;32.10;17.90;;;1.20;99.90;;;;;;5050472;28;20601;-67
2023/01/20 09:31:50;;;;;;;29.80;15.37;;;2.30;99.90;;;;;;5047962;28;20239;-67
2023/01/20 09:34:23;;;;;;;29.00;14.43;;;2.90;99.90;;;;;;5055408;28;20209;-67
2023/01/20 09:36:51;;;;;;;31.67;17.83;;;2.80;99.90;;;;;;5048582;28;20256;-67
2023/01/20 09:45:21;;;;;;;28.83;14.90;;;3.80;99.90;;;;;;5049293;28;20256;-67
2023/01/20 09:47:49;;;;;;;28.33;15.17;;;3.30;99.90;;;;;;5048888;28;20209;-67
2023/01/20 09:53:47;;;;;;;25.73;12.93;;;2.40;99.90;;;;;;5052308;28;20208;-67
2023/01/20 09:56:17;;;;;;;29.30;13.70;;;1.80;99.90;;;;;;5051224;28;20225;-67
2023/01/20 09:58:53;;;;;;;26.03;13.60;;;1.90;99.90;;;;;;5050151;28;20297;-67
2023/01/20 10:01:29;;;;;;;28.77;14.37;;;2.10;99.90;;;;;;5052117;28;20217;-66
2023/01/20 10:04:02;;;;;;;27.90;14.03;;;2.00;99.90;;;;;;5044186;28;20198;-66
2023/01/20 10:06:37;;;;;;;25.90;12.23;;;2.20;99.90;;;;;;5043538;28;20207;-66
2023/01/20 10:09:16;;;;;;;26.27;13.40;;;2.10;99.90;;;;;;5046949;28;20209;-66
2023/01/20 10:11:44;;;;;;;26.77;12.17;;;2.20;99.90;;;;;;5045206;28;20575;-66
2023/01/20 10:14:18;;;;;;;24.40;12.57;;;2.40;99.90;;;;;;5043793;28;20214;-66
2023/01/20 10:16:55;;;;;;;27.50;13.47;;;2.20;99.90;;;;;;5046855;28;20229;-66
2023/01/20 10:19:32;;;;;;;25.17;11.97;;;2.20;99.90;;;;;;5047187;28;20199;-67
2023/01/20 10:22:12;;;;;;;26.47;12.03;;;2.40;99.90;;;;;;5048502;28;20641;-67
2023/01/20 10:24:46;;;;;;;25.97;12.83;;;2.50;99.90;;;;;;5049408;28;20203;-67
2023/01/20 10:27:14;;;;;;;24.80;11.73;;;2.90;99.90;;;;;;5043826;28;20199;-67
2023/01/20 10:29:47;;;;;;;25.73;11.47;;;2.80;99.90;;;;;;5050239;28;20655;-67
2023/01/20 10:32:23;;;;;;;25.97;12.07;;;2.60;99.90;;;;;;5052568;28;20199;-67
2023/01/20 10:34:54;;;;;;;23.03;11.97;;;2.60;99.90;;;;;;5043703;28;20547;-67
2023/01/20 10:37:25;;;;;;;21.97;11.70;;;2.80;99.90;;;;;;5043769;28;20227;-67
2023/01/20 10:39:56;;;;;;;25.83;12.00;;;2.80;99.90;;;;;;5047613;28;20207;-67
2023/01/20 10:42:27;;;;;;;24.33;11.77;;;3.20;99.90;;;;;;5045493;28;20199;-67
2023/01/20 10:44:54;;;;;;;24.17;12.13;;;3.10;99.90;;;;;;5046669;28;20286;-67
2023/01/20 10:47:25;;;;;;;21.27;11.33;;;3.20;99.90;;;;;;5053059;28;20207;-67
2023/01/20 10:50:32;;;;;;;20.77;10.30;;;3.00;99.90;;;;;;5040746;28;20198;-67
2023/01/20 10:53:35;;;;;;;20.73;10.73;;;3.10;99.90;;;;;;5042664;28;20200;-67
2023/01/20 10:56:13;;;;;;;21.37;10.20;;;3.20;99.90;;;;;;5042105;28;20222;-68
2023/01/20 10:58:44;;;;;;;24.63;12.30;;;3.20;99.90;;;;;;5047115;28;20199;-68
2023/01/20 11:01:15;;;;;;;24.07;11.40;;;3.50;99.90;;;;;;5050895;28;20226;-68
2023/01/20 11:03:48;;;;;;;24.33;11.37;;;3.60;99.90;;;;;;5055701;28;20646;-68
2023/01/20 11:06:19;;;;;;;26.43;11.83;;;3.60;99.90;;;;;;5050509;28;20256;-68
2023/01/20 11:08:48;;;;;;;24.27;11.80;;;3.40;99.90;;;;;;5051736;28;20654;-67
2023/01/20 11:11:17;;;;;;;22.03;10.63;;;3.30;99.90;;;;;;5046883;28;20546;-67
2023/01/20 11:13:44;;;;;;;21.57;10.77;;;3.10;99.90;;;;;;5048973;28;20560;-67
2023/01/20 11:16:16;;;;;;;24.23;10.77;;;3.00;99.90;;;;;;5047118;28;20223;-67
2023/01/20 11:18:54;;;;;;;23.30;11.87;;;3.00;99.90;;;;;;5052385;28;20672;-67
2023/01/20 11:21:24;;;;;;;18.27;9.47;;;2.90;99.90;;;;;;5049287;28;20202;-66
2023/01/20 11:23:56;;;;;;;20.30;10.10;;;2.80;99.90;;;;;;5048006;28;20210;-66
2023/01/20 11:26:26;;;;;;;22.13;9.93;;;2.90;99.90;;;;;;5047224;28;20559;-66
2023/01/20 11:28:56;;;;;;;22.63;9.43;;;2.90;99.90;;;;;;5051706;28;20674;-66
2023/01/20 11:31:37;;;;;;;23.07;10.07;;;2.90;99.90;;;;;;5045874;28;20199;-66
2023/01/20 11:34:21;;;;;;;17.83;9.43;;;2.90;99.90;;;;;;5050607;28;20202;-66
2023/01/20 11:37:08;;;;;;;21.90;10.43;;;2.90;99.90;;;;;;5047137;28;20242;-66
2023/01/20 11:39:42;;;;;;;21.63;10.90;;;2.90;99.90;;;;;;5047430;28;20215;-68
2023/01/20 11:42:17;;;;;;;18.53;10.33;;;2.90;99.90;;;;;;5048888;28;20210;-68
2023/01/20 11:44:44;;;;;;;19.90;9.70;;;2.90;99.90;;;;;;5045892;28;20195;-66
2023/01/20 11:47:23;;;;;;;23.23;10.30;;;2.90;99.90;;;;;;5046856;28;20203;-66
2023/01/20 11:50:26;;;;;;;20.97;10.50;;;2.90;99.90;;;;;;5047580;28;20264;-66
2023/01/20 11:53:10;;;;;;;20.43;9.73;;;2.90;99.90;;;;;;5046587;28;20289;-66
2023/01/20 11:55:46;;;;;;;19.33;9.43;;;3.00;99.90;;;;;;5063510;28;20210;-66
2023/01/20 11:58:17;;;;;;;22.40;10.07;;;3.10;99.90;;;;;;5051104;28;20210;-66
2023/01/20 12:00:44;;;;;;;21.80;10.33;;;3.10;99.90;;;;;;5048625;28;20202;-66
2023/01/20 12:03:26;;;;;;;21.93;9.77;;;3.20;99.90;;;;;;5050004;28;20199;-66
2023/01/20 12:05:59;;;;;;;22.33;10.47;;;3.30;99.90;;;;;;5045279;28;20209;-66
2023/01/20 12:08:29;;;;;;;20.93;11.03;;;4.90;99.90;;;;;;5066145;28;20210;-66
2023/01/20 12:11:02;;;;;;;17.43;9.07;;;5.80;99.90;;;;;;5053895;28;20222;-66
2023/01/20 12:14:18;;;;;;;18.80;10.03;;;6.30;99.90;;;;;;5051232;28;20210;-66
2023/01/20 12:16:24;;;;;;;22.53;10.17;;;6.00;99.90;;;;;;5053490;28;20317;-66
2023/01/20 12:18:55;;;;;;;19.53;9.80;;;6.10;99.90;;;;;;5046936;28;20548;-66
2023/01/20 12:21:26;;;;;;;19.43;9.57;;;5.50;99.90;;;;;;5051489;28;20206;-66
2023/01/20 12:23:56;;;;;;;20.00;9.37;;;5.20;99.90;;;;;;5053267;28;20214;-66
2023/01/20 12:26:27;;;;;;;20.53;10.00;;;4.90;99.90;;;;;;5053475;28;20223;-66
2023/01/20 12:29:00;;;;;;;18.43;8.97;;;4.90;99.90;;;;;;5052964;28;20206;-66
2023/01/20 12:31:27;;;;;;;19.30;9.70;;;5.10;99.90;;;;;;5053139;28;20219;-66
2023/01/20 12:33:59;;;;;;;19.57;9.03;;;5.10;99.90;;;;;;5053020;28;20206;-66
2023/01/20 12:36:43;;;;;;;16.87;9.07;;;5.00;99.90;;;;;;5049880;28;20227;-66
2023/01/20 12:39:39;;;;;;;17.73;9.03;;;5.10;99.90;;;;;;5050413;28;20210;-66
2023/01/20 12:42:48;;;;;;;18.70;9.00;;;4.80;99.90;;;;;;5055087;28;20205;-66
2023/01/20 12:45:27;;;;;;;19.07;10.50;;;4.30;99.90;;;;;;5062213;28;20210;-66
2023/01/20 12:48:07;;;;;;;27.53;13.87;;;3.90;99.90;;;;;;5045347;28;20195;-66
2023/01/20 12:50:48;;;;;;;25.67;13.53;;;3.80;99.90;;;;;;5050807;28;20660;-66
2023/01/20 12:53:37;;;;;;;17.10;8.53;;;4.10;99.90;;;;;;5043869;28;20229;-66
2023/01/20 12:56:17;;;;;;;18.67;9.53;;;3.70;99.90;;;;;;5042785;28;20329;-66